sensor_id;sensor_type;location;lat;lon;timestamp;P1;durP1;ratioP1;P2;durP2;ratioP2
22184;SDS011;11258;52.516;13.318;2023-10-13T00:00:32;3.90;;;2.33;;
22184;SDS011;11258;52.516;13.318;2023-10-13T00:03:01;5.50;;;2.35;;
22184;SDS011;11258;52.516;13.318;2023-10-13T00:05:28;3.38;;;1.90;;
22184;SDS011;11258;52.516;13.318;2023-10-13T00:07:56;4.43;;;2.03;;
22184;SDS011;11258;52.516;13.318;2023-10-13T00:10:28;4.75;;;1.95;;
22184;SDS011;11258;52.516;13.318;2023-10-13T00:12:58;6.70;;;1.95;;
22184;SDS011;11258;52.516;13.318;2023-10-13T00:15:43;5.00;;;2.25;;
22184;SDS011;11258;52.516;13.318;2023-10-13T00:18:22;3.28;;;1.98;;
22184;SDS011;11258;52.516;13.318;2023-10-13T00:21:06;1.90;;;1.67;;
22184;SDS011;11258;52.516;13.318;2023-10-13T00:23:43;3.33;;;2.05;;
22184;SDS011;11258;52.516;13.318;2023-10-13T00:26:19;4.70;;;2.47;;
22184;SDS011;11258;52.516;13.318;2023-10-13T00:28:53;4.32;;;2.70;;
22184;SDS011;11258;52.516;13.318;2023-10-13T00:31:36;4.10;;;2.17;;
22184;SDS011;11258;52.516;13.318;2023-10-13T00:34:03;5.32;;;2.40;;
22184;SDS011;11258;52.516;13.318;2023-10-13T00:36:45;5.18;;;3.25;;
22184;SDS011;11258;52.516;13.318;2023-10-13T00:39:34;5.82;;;3.00;;
22184;SDS011;11258;52.516;13.318;2023-10-13T00:42:02;11.60;;;3.70;;
22184;SDS011;11258;52.516;13.318;2023-10-13T00:44:32;5.20;;;3.22;;
22184;SDS011;11258;52.516;13.318;2023-10-13T00:47:08;6.10;;;3.13;;
22184;SDS011;11258;52.516;13.318;2023-10-13T00:49:45;5.05;;;3.15;;
22184;SDS011;11258;52.516;13.318;2023-10-13T00:52:13;6.18;;;3.08;;
22184;SDS011;11258;52.516;13.318;2023-10-13T00:54:40;6.40;;;3.40;;
22184;SDS011;11258;52.516;13.318;2023-10-13T00:57:12;4.82;;;2.90;;
22184;SDS011;11258;52.516;13.318;2023-10-13T00:59:59;5.45;;;3.17;;
22184;SDS011;11258;52.516;13.318;2023-10-13T01:02:43;6.45;;;2.78;;
22184;SDS011;11258;52.516;13.318;2023-10-13T01:05:10;6.55;;;2.72;;
22184;SDS011;11258;52.516;13.318;2023-10-13T01:07:44;3.33;;;2.10;;
22184;SDS011;11258;52.516;13.318;2023-10-13T01:10:15;3.22;;;2.13;;
22184;SDS011;11258;52.516;13.318;2023-10-13T01:12:41;4.72;;;2.28;;
22184;SDS011;11258;52.516;13.318;2023-10-13T01:15:10;5.40;;;2.30;;
22184;SDS011;11258;52.516;13.318;2023-10-13T01:17:41;7.22;;;2.97;;
22184;SDS011;11258;52.516;13.318;2023-10-13T01:20:09;4.25;;;2.38;;
22184;SDS011;11258;52.516;13.318;2023-10-13T01:22:37;3.40;;;1.95;;
22184;SDS011;11258;52.516;13.318;2023-10-13T01:25:03;3.40;;;2.25;;
22184;SDS011;11258;52.516;13.318;2023-10-13T01:27:38;9.23;;;2.97;;
22184;SDS011;11258;52.516;13.318;2023-10-13T01:30:05;5.75;;;3.05;;
22184;SDS011;11258;52.516;13.318;2023-10-13T01:32:35;4.07;;;2.65;;
22184;SDS011;11258;52.516;13.318;2023-10-13T01:35:06;6.45;;;3.03;;
22184;SDS011;11258;52.516;13.318;2023-10-13T01:37:32;5.85;;;2.45;;
22184;SDS011;11258;52.516;13.318;2023-10-13T01:39:58;4.57;;;2.80;;
22184;SDS011;11258;52.516;13.318;2023-10-13T01:42:23;6.28;;;2.65;;
22184;SDS011;11258;52.516;13.318;2023-10-13T01:44:50;3.92;;;2.70;;
22184;SDS011;11258;52.516;13.318;2023-10-13T01:47:16;5.85;;;3.47;;
22184;SDS011;11258;52.516;13.318;2023-10-13T01:49:42;4.88;;;3.25;;
22184;SDS011;11258;52.516;13.318;2023-10-13T01:52:11;4.05;;;2.75;;
22184;SDS011;11258;52.516;13.318;2023-10-13T01:54:41;6.10;;;3.00;;
22184;SDS011;11258;52.516;13.318;2023-10-13T01:57:09;5.68;;;3.22;;
22184;SDS011;11258;52.516;13.318;2023-10-13T01:59:42;4.78;;;3.10;;
22184;SDS011;11258;52.516;13.318;2023-10-13T02:02:13;4.38;;;3.20;;
22184;SDS011;11258;52.516;13.318;2023-10-13T02:04:39;5.88;;;3.35;;
22184;SDS011;11258;52.516;13.318;2023-10-13T02:07:20;9.15;;;3.65;;
22184;SDS011;11258;52.516;13.318;2023-10-13T02:09:45;6.22;;;3.55;;
22184;SDS011;11258;52.516;13.318;2023-10-13T02:12:12;6.30;;;3.70;;
22184;SDS011;11258;52.516;13.318;2023-10-13T02:14:39;6.80;;;4.05;;
22184;SDS011;11258;52.516;13.318;2023-10-13T02:17:07;9.20;;;4.35;;
22184;SDS011;11258;52.516;13.318;2023-10-13T02:19:39;8.23;;;4.47;;
22184;SDS011;11258;52.516;13.318;2023-10-13T02:22:09;6.57;;;4.03;;
22184;SDS011;11258;52.516;13.318;2023-10-13T02:24:36;7.57;;;4.82;;
22184;SDS011;11258;52.516;13.318;2023-10-13T02:27:06;10.23;;;3.92;;
22184;SDS011;11258;52.516;13.318;2023-10-13T02:29:41;8.25;;;4.18;;
22184;SDS011;11258;52.516;13.318;2023-10-13T02:32:11;7.95;;;4.43;;
22184;SDS011;11258;52.516;13.318;2023-10-13T02:34:55;8.63;;;4.38;;
22184;SDS011;11258;52.516;13.318;2023-10-13T02:37:30;9.45;;;4.57;;
22184;SDS011;11258;52.516;13.318;2023-10-13T02:39:56;8.80;;;4.75;;
22184;SDS011;11258;52.516;13.318;2023-10-13T02:42:22;7.63;;;4.45;;
22184;SDS011;11258;52.516;13.318;2023-10-13T02:44:51;8.15;;;4.60;;
22184;SDS011;11258;52.516;13.318;2023-10-13T02:47:20;8.55;;;4.72;;
22184;SDS011;11258;52.516;13.318;2023-10-13T02:49:48;7.25;;;4.18;;
22184;SDS011;11258;52.516;13.318;2023-10-13T02:52:14;13.60;;;5.28;;
22184;SDS011;11258;52.516;13.318;2023-10-13T02:54:40;9.80;;;4.72;;
22184;SDS011;11258;52.516;13.318;2023-10-13T02:57:12;10.35;;;4.63;;
22184;SDS011;11258;52.516;13.318;2023-10-13T02:59:41;8.90;;;4.72;;
22184;SDS011;11258;52.516;13.318;2023-10-13T03:02:12;11.55;;;5.47;;
22184;SDS011;11258;52.516;13.318;2023-10-13T03:04:55;8.85;;;5.25;;
22184;SDS011;11258;52.516;13.318;2023-10-13T03:07:33;9.65;;;5.93;;
22184;SDS011;11258;52.516;13.318;2023-10-13T03:10:01;9.10;;;5.28;;
22184;SDS011;11258;52.516;13.318;2023-10-13T03:12:35;10.70;;;6.03;;
22184;SDS011;11258;52.516;13.318;2023-10-13T03:15:01;10.30;;;4.68;;
22184;SDS011;11258;52.516;13.318;2023-10-13T03:17:45;9.77;;;5.40;;
22184;SDS011;11258;52.516;13.318;2023-10-13T03:20:11;11.20;;;5.63;;
22184;SDS011;11258;52.516;13.318;2023-10-13T03:22:45;11.57;;;5.57;;
22184;SDS011;11258;52.516;13.318;2023-10-13T03:25:11;9.50;;;4.90;;
22184;SDS011;11258;52.516;13.318;2023-10-13T03:28:07;8.35;;;5.50;;
22184;SDS011;11258;52.516;13.318;2023-10-13T03:30:36;11.80;;;5.93;;
22184;SDS011;11258;52.516;13.318;2023-10-13T03:33:06;12.25;;;5.50;;
22184;SDS011;11258;52.516;13.318;2023-10-13T03:35:35;13.70;;;5.32;;
22184;SDS011;11258;52.516;13.318;2023-10-13T03:38:07;16.20;;;6.72;;
22184;SDS011;11258;52.516;13.318;2023-10-13T03:40:41;14.18;;;6.20;;
22184;SDS011;11258;52.516;13.318;2023-10-13T03:43:35;12.50;;;6.15;;
22184;SDS011;11258;52.516;13.318;2023-10-13T03:46:09;10.27;;;6.35;;
22184;SDS011;11258;52.516;13.318;2023-10-13T03:48:35;12.45;;;5.75;;
22184;SDS011;11258;52.516;13.318;2023-10-13T03:51:16;12.80;;;6.35;;
22184;SDS011;11258;52.516;13.318;2023-10-13T03:53:42;11.50;;;6.05;;
22184;SDS011;11258;52.516;13.318;2023-10-13T03:56:25;13.68;;;6.95;;
22184;SDS011;11258;52.516;13.318;2023-10-13T03:58:51;13.02;;;6.15;;
22184;SDS011;11258;52.516;13.318;2023-10-13T04:01:37;16.95;;;7.20;;
22184;SDS011;11258;52.516;13.318;2023-10-13T04:04:08;11.18;;;6.13;;
22184;SDS011;11258;52.516;13.318;2023-10-13T04:06:37;13.23;;;5.60;;
22184;SDS011;11258;52.516;13.318;2023-10-13T04:09:23;13.93;;;6.15;;
22184;SDS011;11258;52.516;13.318;2023-10-13T04:11:55;12.85;;;6.28;;
22184;SDS011;11258;52.516;13.318;2023-10-13T04:14:31;14.88;;;7.45;;
22184;SDS011;11258;52.516;13.318;2023-10-13T04:17:16;9.65;;;6.22;;
22184;SDS011;11258;52.516;13.318;2023-10-13T04:19:47;18.13;;;7.85;;
22184;SDS011;11258;52.516;13.318;2023-10-13T04:22:33;14.63;;;7.45;;
22184;SDS011;11258;52.516;13.318;2023-10-13T04:25:11;17.90;;;8.52;;
22184;SDS011;11258;52.516;13.318;2023-10-13T04:27:55;17.02;;;8.40;;
22184;SDS011;11258;52.516;13.318;2023-10-13T04:33:24;11.90;;;7.75;;
22184;SDS011;11258;52.516;13.318;2023-10-13T04:36:14;21.95;;;9.15;;
22184;SDS011;11258;52.516;13.318;2023-10-13T04:38:56;14.70;;;7.85;;
22184;SDS011;11258;52.516;13.318;2023-10-13T04:44:22;14.52;;;7.68;;
22184;SDS011;11258;52.516;13.318;2023-10-13T04:46:48;17.95;;;7.35;;
22184;SDS011;11258;52.516;13.318;2023-10-13T04:49:14;16.85;;;8.25;;
22184;SDS011;11258;52.516;13.318;2023-10-13T04:51:59;13.65;;;8.15;;
22184;SDS011;11258;52.516;13.318;2023-10-13T04:54:41;17.98;;;8.27;;
22184;SDS011;11258;52.516;13.318;2023-10-13T04:57:14;15.40;;;8.60;;
22184;SDS011;11258;52.516;13.318;2023-10-13T04:59:45;16.90;;;8.95;;
22184;SDS011;11258;52.516;13.318;2023-10-13T05:02:32;16.55;;;8.93;;
22184;SDS011;11258;52.516;13.318;2023-10-13T05:04:58;17.83;;;8.27;;
22184;SDS011;11258;52.516;13.318;2023-10-13T05:07:30;14.25;;;8.38;;
22184;SDS011;11258;52.516;13.318;2023-10-13T05:10:15;17.48;;;8.07;;
22184;SDS011;11258;52.516;13.318;2023-10-13T05:12:59;13.85;;;7.53;;
22184;SDS011;11258;52.516;13.318;2023-10-13T05:15:44;12.00;;;7.10;;
22184;SDS011;11258;52.516;13.318;2023-10-13T05:18:30;20.45;;;8.98;;
22184;SDS011;11258;52.516;13.318;2023-10-13T05:21:14;16.70;;;8.15;;
22184;SDS011;11258;52.516;13.318;2023-10-13T05:23:58;13.45;;;7.93;;
22184;SDS011;11258;52.516;13.318;2023-10-13T05:26:43;17.25;;;8.10;;
22184;SDS011;11258;52.516;13.318;2023-10-13T05:29:27;15.65;;;8.00;;
22184;SDS011;11258;52.516;13.318;2023-10-13T05:32:11;17.92;;;7.95;;
22184;SDS011;11258;52.516;13.318;2023-10-13T05:34:55;12.63;;;8.05;;
22184;SDS011;11258;52.516;13.318;2023-10-13T05:37:40;18.08;;;7.72;;
22184;SDS011;11258;52.516;13.318;2023-10-13T05:40:24;16.42;;;7.35;;
22184;SDS011;11258;52.516;13.318;2023-10-13T05:43:25;14.15;;;8.43;;
22184;SDS011;11258;52.516;13.318;2023-10-13T05:46:09;17.02;;;7.90;;
22184;SDS011;11258;52.516;13.318;2023-10-13T05:49:02;13.07;;;7.75;;
22184;SDS011;11258;52.516;13.318;2023-10-13T05:51:45;12.63;;;6.93;;
22184;SDS011;11258;52.516;13.318;2023-10-13T05:54:11;14.57;;;7.75;;
22184;SDS011;11258;52.516;13.318;2023-10-13T05:56:40;12.27;;;7.72;;
22184;SDS011;11258;52.516;13.318;2023-10-13T05:59:25;12.35;;;6.72;;
22184;SDS011;11258;52.516;13.318;2023-10-13T06:02:10;17.25;;;8.25;;
22184;SDS011;11258;52.516;13.318;2023-10-13T06:04:54;16.73;;;8.27;;
22184;SDS011;11258;52.516;13.318;2023-10-13T06:07:39;11.88;;;7.63;;
22184;SDS011;11258;52.516;13.318;2023-10-13T06:10:23;14.68;;;7.45;;
22184;SDS011;11258;52.516;13.318;2023-10-13T06:13:07;13.98;;;8.38;;
22184;SDS011;11258;52.516;13.318;2023-10-13T06:15:52;13.80;;;8.85;;
22184;SDS011;11258;52.516;13.318;2023-10-13T06:18:36;14.00;;;9.10;;
22184;SDS011;11258;52.516;13.318;2023-10-13T06:21:20;10.27;;;6.75;;
22184;SDS011;11258;52.516;13.318;2023-10-13T06:24:05;13.32;;;6.05;;
22184;SDS011;11258;52.516;13.318;2023-10-13T06:26:50;7.55;;;5.28;;
22184;SDS011;11258;52.516;13.318;2023-10-13T06:29:35;8.35;;;4.85;;
22184;SDS011;11258;52.516;13.318;2023-10-13T06:32:00;7.28;;;4.10;;
22184;SDS011;11258;52.516;13.318;2023-10-13T06:34:29;10.18;;;5.18;;
22184;SDS011;11258;52.516;13.318;2023-10-13T06:37:19;7.82;;;4.43;;
22184;SDS011;11258;52.516;13.318;2023-10-13T06:39:51;11.40;;;4.90;;
22184;SDS011;11258;52.516;13.318;2023-10-13T06:42:21;8.95;;;5.38;;
22184;SDS011;11258;52.516;13.318;2023-10-13T06:44:53;7.38;;;4.60;;
22184;SDS011;11258;52.516;13.318;2023-10-13T06:47:20;7.18;;;4.63;;
22184;SDS011;11258;52.516;13.318;2023-10-13T06:49:46;8.75;;;4.55;;
22184;SDS011;11258;52.516;13.318;2023-10-13T06:52:16;7.50;;;4.57;;
22184;SDS011;11258;52.516;13.318;2023-10-13T06:54:42;7.00;;;4.88;;
22184;SDS011;11258;52.516;13.318;2023-10-13T06:57:08;5.65;;;4.22;;
22184;SDS011;11258;52.516;13.318;2023-10-13T06:59:45;10.02;;;4.50;;
22184;SDS011;11258;52.516;13.318;2023-10-13T07:02:14;7.00;;;3.92;;
22184;SDS011;11258;52.516;13.318;2023-10-13T07:04:49;6.65;;;4.15;;
22184;SDS011;11258;52.516;13.318;2023-10-13T07:07:32;5.80;;;4.28;;
22184;SDS011;11258;52.516;13.318;2023-10-13T07:09:58;10.05;;;4.40;;
22184;SDS011;11258;52.516;13.318;2023-10-13T07:12:23;10.75;;;4.03;;
22184;SDS011;11258;52.516;13.318;2023-10-13T07:14:52;4.43;;;3.78;;
22184;SDS011;11258;52.516;13.318;2023-10-13T07:17:39;5.70;;;4.10;;
22184;SDS011;11258;52.516;13.318;2023-10-13T07:20:06;5.20;;;3.33;;
22184;SDS011;11258;52.516;13.318;2023-10-13T07:22:48;7.97;;;3.90;;
22184;SDS011;11258;52.516;13.318;2023-10-13T07:25:22;4.93;;;3.70;;
22184;SDS011;11258;52.516;13.318;2023-10-13T07:27:52;6.10;;;3.90;;
22184;SDS011;11258;52.516;13.318;2023-10-13T07:30:19;7.28;;;3.70;;
22184;SDS011;11258;52.516;13.318;2023-10-13T07:32:51;5.07;;;3.20;;
22184;SDS011;11258;52.516;13.318;2023-10-13T07:35:17;6.97;;;3.97;;
22184;SDS011;11258;52.516;13.318;2023-10-13T07:37:51;5.97;;;4.32;;
22184;SDS011;11258;52.516;13.318;2023-10-13T07:40:18;5.45;;;3.90;;
22184;SDS011;11258;52.516;13.318;2023-10-13T07:42:50;6.05;;;3.58;;
22184;SDS011;11258;52.516;13.318;2023-10-13T07:45:26;6.57;;;3.33;;
22184;SDS011;11258;52.516;13.318;2023-10-13T07:48:01;5.85;;;4.03;;
22184;SDS011;11258;52.516;13.318;2023-10-13T07:50:32;6.35;;;3.47;;
22184;SDS011;11258;52.516;13.318;2023-10-13T07:52:59;6.18;;;4.03;;
22184;SDS011;11258;52.516;13.318;2023-10-13T07:55:30;6.78;;;3.20;;
22184;SDS011;11258;52.516;13.318;2023-10-13T07:57:59;4.97;;;3.60;;
22184;SDS011;11258;52.516;13.318;2023-10-13T08:00:32;7.38;;;3.83;;
22184;SDS011;11258;52.516;13.318;2023-10-13T08:03:14;7.22;;;4.38;;
22184;SDS011;11258;52.516;13.318;2023-10-13T08:05:40;7.22;;;4.30;;
22184;SDS011;11258;52.516;13.318;2023-10-13T08:08:25;6.38;;;4.20;;
22184;SDS011;11258;52.516;13.318;2023-10-13T08:10:52;5.22;;;3.35;;
22184;SDS011;11258;52.516;13.318;2023-10-13T08:13:25;7.72;;;3.70;;
22184;SDS011;11258;52.516;13.318;2023-10-13T08:15:51;4.75;;;3.28;;
22184;SDS011;11258;52.516;13.318;2023-10-13T08:18:18;5.43;;;3.42;;
22184;SDS011;11258;52.516;13.318;2023-10-13T08:20:58;6.07;;;3.65;;
22184;SDS011;11258;52.516;13.318;2023-10-13T08:23:30;6.82;;;3.55;;
22184;SDS011;11258;52.516;13.318;2023-10-13T08:26:23;5.15;;;3.08;;
22184;SDS011;11258;52.516;13.318;2023-10-13T08:29:03;8.95;;;4.55;;
22184;SDS011;11258;52.516;13.318;2023-10-13T08:31:50;7.43;;;3.53;;
22184;SDS011;11258;52.516;13.318;2023-10-13T08:34:33;4.95;;;3.30;;
22184;SDS011;11258;52.516;13.318;2023-10-13T08:37:08;5.30;;;3.25;;
22184;SDS011;11258;52.516;13.318;2023-10-13T08:39:47;4.38;;;2.75;;
22184;SDS011;11258;52.516;13.318;2023-10-13T08:42:23;5.53;;;3.40;;
22184;SDS011;11258;52.516;13.318;2023-10-13T08:47:59;6.28;;;3.17;;
22184;SDS011;11258;52.516;13.318;2023-10-13T08:50:44;6.30;;;4.10;;
22184;SDS011;11258;52.516;13.318;2023-10-13T08:53:17;6.00;;;3.72;;
22184;SDS011;11258;52.516;13.318;2023-10-13T08:58:43;5.15;;;3.45;;
22184;SDS011;11258;52.516;13.318;2023-10-13T09:01:19;5.25;;;3.83;;
22184;SDS011;11258;52.516;13.318;2023-10-13T09:04:02;6.72;;;4.00;;
22184;SDS011;11258;52.516;13.318;2023-10-13T09:09:29;5.57;;;3.42;;
22184;SDS011;11258;52.516;13.318;2023-10-13T09:12:13;5.55;;;3.60;;
22184;SDS011;11258;52.516;13.318;2023-10-13T09:14:52;4.30;;;3.25;;
22184;SDS011;11258;52.516;13.318;2023-10-13T09:17:22;5.03;;;3.13;;
22184;SDS011;11258;52.516;13.318;2023-10-13T09:19:58;5.28;;;3.75;;
22184;SDS011;11258;52.516;13.318;2023-10-13T09:22:36;6.20;;;3.72;;
22184;SDS011;11258;52.516;13.318;2023-10-13T09:25:02;7.32;;;3.38;;
22184;SDS011;11258;52.516;13.318;2023-10-13T09:27:32;8.55;;;5.00;;
22184;SDS011;11258;52.516;13.318;2023-10-13T09:29:58;5.97;;;3.35;;
22184;SDS011;11258;52.516;13.318;2023-10-13T09:32:33;5.90;;;3.50;;
22184;SDS011;11258;52.516;13.318;2023-10-13T09:35:10;5.82;;;3.33;;
22184;SDS011;11258;52.516;13.318;2023-10-13T09:37:52;6.97;;;4.55;;
22184;SDS011;11258;52.516;13.318;2023-10-13T09:40:21;4.57;;;3.58;;
22184;SDS011;11258;52.516;13.318;2023-10-13T09:42:54;5.75;;;3.65;;
22184;SDS011;11258;52.516;13.318;2023-10-13T09:45:26;6.18;;;3.88;;
22184;SDS011;11258;52.516;13.318;2023-10-13T09:47:55;5.30;;;3.35;;
22184;SDS011;11258;52.516;13.318;2023-10-13T09:50:31;7.82;;;4.00;;
22184;SDS011;11258;52.516;13.318;2023-10-13T09:53:02;10.15;;;5.90;;
22184;SDS011;11258;52.516;13.318;2023-10-13T09:55:35;8.80;;;4.70;;
22184;SDS011;11258;52.516;13.318;2023-10-13T09:58:06;7.22;;;3.72;;
22184;SDS011;11258;52.516;13.318;2023-10-13T10:00:46;4.63;;;3.33;;
22184;SDS011;11258;52.516;13.318;2023-10-13T10:03:22;6.72;;;3.70;;
22184;SDS011;11258;52.516;13.318;2023-10-13T10:05:56;7.38;;;3.88;;
22184;SDS011;11258;52.516;13.318;2023-10-13T10:08:29;7.07;;;3.78;;
22184;SDS011;11258;52.516;13.318;2023-10-13T10:13:47;7.55;;;3.92;;
22184;SDS011;11258;52.516;13.318;2023-10-13T10:16:26;10.90;;;3.97;;
22184;SDS011;11258;52.516;13.318;2023-10-13T10:19:12;8.93;;;4.50;;
22184;SDS011;11258;52.516;13.318;2023-10-13T10:21:37;5.45;;;3.65;;
22184;SDS011;11258;52.516;13.318;2023-10-13T10:24:16;4.68;;;3.20;;
22184;SDS011;11258;52.516;13.318;2023-10-13T10:26:55;5.18;;;3.75;;
22184;SDS011;11258;52.516;13.318;2023-10-13T10:29:21;6.55;;;3.30;;
22184;SDS011;11258;52.516;13.318;2023-10-13T10:31:47;5.68;;;3.67;;
22184;SDS011;11258;52.516;13.318;2023-10-13T10:34:14;5.22;;;3.33;;
22184;SDS011;11258;52.516;13.318;2023-10-13T10:36:45;7.20;;;3.20;;
22184;SDS011;11258;52.516;13.318;2023-10-13T10:39:12;7.38;;;3.40;;
22184;SDS011;11258;52.516;13.318;2023-10-13T10:41:40;7.20;;;3.90;;
22184;SDS011;11258;52.516;13.318;2023-10-13T10:44:11;5.93;;;3.55;;
22184;SDS011;11258;52.516;13.318;2023-10-13T10:46:41;7.05;;;3.88;;
22184;SDS011;11258;52.516;13.318;2023-10-13T10:49:17;6.45;;;4.47;;
22184;SDS011;11258;52.516;13.318;2023-10-13T10:51:53;8.55;;;4.07;;
22184;SDS011;11258;52.516;13.318;2023-10-13T10:54:25;8.35;;;5.07;;
22184;SDS011;11258;52.516;13.318;2023-10-13T10:56:55;6.60;;;5.13;;
22184;SDS011;11258;52.516;13.318;2023-10-13T10:59:24;6.10;;;3.13;;
22184;SDS011;11258;52.516;13.318;2023-10-13T11:01:54;5.13;;;3.47;;
22184;SDS011;11258;52.516;13.318;2023-10-13T11:04:19;5.78;;;3.55;;
22184;SDS011;11258;52.516;13.318;2023-10-13T11:06:54;7.95;;;3.42;;
22184;SDS011;11258;52.516;13.318;2023-10-13T11:09:31;5.95;;;3.63;;
22184;SDS011;11258;52.516;13.318;2023-10-13T11:12:09;5.13;;;3.45;;
22184;SDS011;11258;52.516;13.318;2023-10-13T11:14:48;9.20;;;3.78;;
22184;SDS011;11258;52.516;13.318;2023-10-13T11:17:25;6.93;;;3.50;;
22184;SDS011;11258;52.516;13.318;2023-10-13T11:19:51;6.53;;;3.90;;
22184;SDS011;11258;52.516;13.318;2023-10-13T11:22:18;6.25;;;3.75;;
22184;SDS011;11258;52.516;13.318;2023-10-13T11:25:01;5.20;;;3.78;;
22184;SDS011;11258;52.516;13.318;2023-10-13T11:27:39;4.43;;;3.22;;
22184;SDS011;11258;52.516;13.318;2023-10-13T11:30:15;6.40;;;3.72;;
22184;SDS011;11258;52.516;13.318;2023-10-13T11:32:45;4.90;;;3.30;;
22184;SDS011;11258;52.516;13.318;2023-10-13T11:35:12;5.03;;;3.53;;
22184;SDS011;11258;52.516;13.318;2023-10-13T11:37:46;5.90;;;4.03;;
22184;SDS011;11258;52.516;13.318;2023-10-13T11:40:21;5.35;;;3.47;;
22184;SDS011;11258;52.516;13.318;2023-10-13T11:43:07;4.65;;;3.35;;
22184;SDS011;11258;52.516;13.318;2023-10-13T11:45:40;6.45;;;3.80;;
22184;SDS011;11258;52.516;13.318;2023-10-13T11:48:38;5.68;;;3.50;;
22184;SDS011;11258;52.516;13.318;2023-10-13T11:51:08;5.18;;;3.03;;
22184;SDS011;11258;52.516;13.318;2023-10-13T11:53:42;6.30;;;3.10;;
22184;SDS011;11258;52.516;13.318;2023-10-13T11:56:21;6.07;;;3.53;;
22184;SDS011;11258;52.516;13.318;2023-10-13T11:58:47;5.70;;;3.30;;
22184;SDS011;11258;52.516;13.318;2023-10-13T12:01:13;5.03;;;3.45;;
22184;SDS011;11258;52.516;13.318;2023-10-13T12:03:40;7.45;;;3.10;;
22184;SDS011;11258;52.516;13.318;2023-10-13T12:06:24;7.75;;;3.50;;
22184;SDS011;11258;52.516;13.318;2023-10-13T12:09:05;6.25;;;3.30;;
22184;SDS011;11258;52.516;13.318;2023-10-13T12:11:38;7.13;;;3.58;;
22184;SDS011;11258;52.516;13.318;2023-10-13T12:14:06;4.72;;;3.30;;
22184;SDS011;11258;52.516;13.318;2023-10-13T12:16:52;5.03;;;3.30;;
22184;SDS011;11258;52.516;13.318;2023-10-13T12:19:22;5.32;;;3.40;;
22184;SDS011;11258;52.516;13.318;2023-10-13T12:21:49;7.85;;;3.75;;
22184;SDS011;11258;52.516;13.318;2023-10-13T12:24:19;7.20;;;3.80;;
22184;SDS011;11258;52.516;13.318;2023-10-13T12:27:05;6.70;;;3.20;;
22184;SDS011;11258;52.516;13.318;2023-10-13T12:29:47;7.38;;;3.53;;
22184;SDS011;11258;52.516;13.318;2023-10-13T12:32:14;6.03;;;3.53;;
22184;SDS011;11258;52.516;13.318;2023-10-13T12:34:45;3.63;;;3.20;;
22184;SDS011;11258;52.516;13.318;2023-10-13T12:37:22;4.57;;;3.33;;
22184;SDS011;11258;52.516;13.318;2023-10-13T12:40:12;4.47;;;2.70;;
22184;SDS011;11258;52.516;13.318;2023-10-13T12:42:57;5.93;;;3.25;;
22184;SDS011;11258;52.516;13.318;2023-10-13T12:45:42;4.68;;;3.35;;
22184;SDS011;11258;52.516;13.318;2023-10-13T12:48:28;8.18;;;4.70;;
22184;SDS011;11258;52.516;13.318;2023-10-13T12:51:13;6.70;;;2.65;;
22184;SDS011;11258;52.516;13.318;2023-10-13T12:53:46;7.05;;;3.22;;
22184;SDS011;11258;52.516;13.318;2023-10-13T12:56:15;6.78;;;4.00;;
22184;SDS011;11258;52.516;13.318;2023-10-13T12:58:42;6.38;;;3.22;;
22184;SDS011;11258;52.516;13.318;2023-10-13T13:01:16;6.43;;;3.25;;
22184;SDS011;11258;52.516;13.318;2023-10-13T13:03:45;8.15;;;3.45;;
22184;SDS011;11258;52.516;13.318;2023-10-13T13:06:15;6.57;;;3.05;;
22184;SDS011;11258;52.516;13.318;2023-10-13T13:08:59;5.22;;;2.80;;
22184;SDS011;11258;52.516;13.318;2023-10-13T13:11:25;11.50;;;3.63;;
22184;SDS011;11258;52.516;13.318;2023-10-13T13:13:53;4.18;;;2.95;;
22184;SDS011;11258;52.516;13.318;2023-10-13T13:16:19;3.88;;;2.95;;
22184;SDS011;11258;52.516;13.318;2023-10-13T13:18:51;3.60;;;2.85;;
22184;SDS011;11258;52.516;13.318;2023-10-13T13:21:19;6.50;;;3.70;;
22184;SDS011;11258;52.516;13.318;2023-10-13T13:23:48;5.95;;;3.38;;
22184;SDS011;11258;52.516;13.318;2023-10-13T13:26:14;6.28;;;3.45;;
22184;SDS011;11258;52.516;13.318;2023-10-13T13:28:44;8.52;;;3.00;;
22184;SDS011;11258;52.516;13.318;2023-10-13T13:31:15;5.55;;;2.80;;
22184;SDS011;11258;52.516;13.318;2023-10-13T13:33:41;4.43;;;3.33;;
22184;SDS011;11258;52.516;13.318;2023-10-13T13:36:09;5.90;;;2.63;;
22184;SDS011;11258;52.516;13.318;2023-10-13T13:38:40;6.18;;;2.88;;
22184;SDS011;11258;52.516;13.318;2023-10-13T13:41:12;7.85;;;2.90;;
22184;SDS011;11258;52.516;13.318;2023-10-13T13:46:19;5.18;;;2.90;;
22184;SDS011;11258;52.516;13.318;2023-10-13T13:48:50;5.57;;;2.92;;
22184;SDS011;11258;52.516;13.318;2023-10-13T13:51:17;3.92;;;2.63;;
22184;SDS011;11258;52.516;13.318;2023-10-13T13:53:51;4.57;;;2.95;;
22184;SDS011;11258;52.516;13.318;2023-10-13T13:56:18;5.65;;;2.97;;
22184;SDS011;11258;52.516;13.318;2023-10-13T13:58:47;7.30;;;3.88;;
22184;SDS011;11258;52.516;13.318;2023-10-13T14:01:15;5.45;;;3.50;;
22184;SDS011;11258;52.516;13.318;2023-10-13T14:03:43;7.82;;;4.15;;
22184;SDS011;11258;52.516;13.318;2023-10-13T14:08:59;8.30;;;2.92;;
22184;SDS011;11258;52.516;13.318;2023-10-13T14:11:29;4.47;;;2.70;;
22184;SDS011;11258;52.516;13.318;2023-10-13T14:14:06;5.07;;;3.08;;
22184;SDS011;11258;52.516;13.318;2023-10-13T14:16:58;7.40;;;3.55;;
22184;SDS011;11258;52.516;13.318;2023-10-13T14:19:33;5.20;;;3.08;;
22184;SDS011;11258;52.516;13.318;2023-10-13T14:22:05;5.22;;;3.13;;
22184;SDS011;11258;52.516;13.318;2023-10-13T14:24:37;4.57;;;3.15;;
22184;SDS011;11258;52.516;13.318;2023-10-13T14:27:08;4.35;;;2.55;;
22184;SDS011;11258;52.516;13.318;2023-10-13T14:29:40;4.65;;;2.70;;
22184;SDS011;11258;52.516;13.318;2023-10-13T14:32:11;5.40;;;2.85;;
22184;SDS011;11258;52.516;13.318;2023-10-13T14:34:42;8.98;;;3.63;;
22184;SDS011;11258;52.516;13.318;2023-10-13T14:37:09;7.68;;;3.17;;
22184;SDS011;11258;52.516;13.318;2023-10-13T14:39:41;6.20;;;3.47;;
22184;SDS011;11258;52.516;13.318;2023-10-13T14:42:07;7.50;;;3.05;;
22184;SDS011;11258;52.516;13.318;2023-10-13T14:44:33;9.48;;;3.72;;
22184;SDS011;11258;52.516;13.318;2023-10-13T14:47:00;7.15;;;3.13;;
22184;SDS011;11258;52.516;13.318;2023-10-13T14:49:26;4.43;;;2.33;;
22184;SDS011;11258;52.516;13.318;2023-10-13T14:51:53;5.45;;;3.33;;
22184;SDS011;11258;52.516;13.318;2023-10-13T14:54:20;4.82;;;3.70;;
22184;SDS011;11258;52.516;13.318;2023-10-13T14:56:58;8.73;;;3.03;;
22184;SDS011;11258;52.516;13.318;2023-10-13T14:59:24;8.57;;;3.70;;
22184;SDS011;11258;52.516;13.318;2023-10-13T15:01:50;5.72;;;3.17;;
22184;SDS011;11258;52.516;13.318;2023-10-13T15:04:15;9.05;;;3.38;;
22184;SDS011;11258;52.516;13.318;2023-10-13T15:06:41;8.32;;;3.50;;
22184;SDS011;11258;52.516;13.318;2023-10-13T15:09:06;5.47;;;3.00;;
22184;SDS011;11258;52.516;13.318;2023-10-13T15:11:36;5.18;;;3.20;;
22184;SDS011;11258;52.516;13.318;2023-10-13T15:14:05;7.55;;;4.22;;
22184;SDS011;11258;52.516;13.318;2023-10-13T15:16:31;7.20;;;3.03;;
22184;SDS011;11258;52.516;13.318;2023-10-13T15:18:58;5.95;;;2.95;;
22184;SDS011;11258;52.516;13.318;2023-10-13T15:21:28;7.85;;;3.08;;
22184;SDS011;11258;52.516;13.318;2023-10-13T15:24:01;4.72;;;2.88;;
22184;SDS011;11258;52.516;13.318;2023-10-13T15:26:38;4.35;;;3.15;;
22184;SDS011;11258;52.516;13.318;2023-10-13T15:29:14;4.45;;;2.83;;
22184;SDS011;11258;52.516;13.318;2023-10-13T15:31:41;5.65;;;3.00;;